Time;durP1;ratioP1;P1;durP2;ratioP2;P2;SDS_P1;SDS_P2;PMS_P1;PMS_P2;Temp;Humidity;BMP_temperature;BMP_pressure;BME280_temperature;BME280_humidity;BME280_pressure;Samples;Min_cycle;Max_cycle;Signal;HPM_P1;HPM_P2
2022/12/13 00:02:01;;;;;;;33.13;21.07;;;;;;;0.74;74.45;98459.17;1825591;78;21475;-38
2022/12/13 00:04:28;;;;;;;30.75;20.88;;;;;;;0.70;74.18;98480.91;1825770;78;21494;-39
2022/12/13 00:06:55;;;;;;;31.25;21.57;;;;;;;0.61;74.18;98480.14;1825671;78;21000;-39
2022/12/13 00:09:22;;;;;;;30.32;21.62;;;;;;;0.56;74.24;98488.30;1825682;77;21032;-38
2022/12/13 00:11:49;;;;;;;30.43;21.42;;;;;;;0.58;74.41;98499.45;1825711;78;21246;-39
2022/12/13 00:14:16;;;;;;;30.57;21.65;;;;;;;0.58;74.39;98514.87;1825669;78;21513;-38
2022/12/13 00:16:47;;;;;;;31.73;20.95;;;;;;;0.57;74.49;98521.87;1825637;78;20988;-39
2022/12/13 00:19:15;;;;;;;30.77;21.30;;;;;;;0.52;74.51;98527.36;1825699;78;20912;-39
2022/12/13 00:21:41;;;;;;;33.08;22.45;;;;;;;0.43;74.79;98523.37;1825583;78;21052;-39
2022/12/13 00:24:08;;;;;;;30.00;19.92;;;;;;;0.39;75.01;98525.85;1825673;78;22026;-38
2022/12/13 00:26:35;;;;;;;30.08;21.15;;;;;;;0.34;75.32;98532.67;1825695;78;21477;-39
2022/12/13 00:29:05;;;;;;;29.25;20.60;;;;;;;0.35;75.47;98530.24;1825698;78;20917;-39
2022/12/13 00:31:31;;;;;;;30.35;21.27;;;;;;;0.34;75.69;98530.00;1826025;78;26493;-38
2022/12/13 00:33:59;;;;;;;33.50;22.10;;;;;;;0.40;75.81;98530.09;1825646;78;21008;-39
2022/12/13 00:36:27;;;;;;;31.70;22.20;;;;;;;0.44;75.65;98526.25;1825890;78;20997;-39
2022/12/13 00:39:00;;;;;;;34.35;22.77;;;;;;;0.40;75.60;98522.09;1825450;78;21481;-39
2022/12/13 00:41:30;;;;;;;32.75;22.40;;;;;;;0.39;75.66;98517.86;1825614;78;20980;-39
2022/12/13 00:43:57;;;;;;;33.23;22.93;;;;;;;0.38;75.78;98520.31;1825718;78;20945;-39
2022/12/13 00:46:24;;;;;;;33.45;22.17;;;;;;;0.40;75.85;98523.43;1825802;78;21742;-38
2022/12/13 00:48:54;;;;;;;33.40;23.02;;;;;;;0.42;75.76;98531.91;1825740;78;21298;-39
2022/12/13 00:51:22;;;;;;;;;;;;;;;0.44;75.80;98544.37;1828581;78;20975;-38
2022/12/13 00:53:48;;;;;;;36.70;22.87;;;;;;;0.46;75.91;98537.94;1825609;78;20123;-39
2022/12/13 00:56:20;;;;;;;33.78;22.32;;;;;;;0.40;76.09;98550.09;1825619;78;21594;-39
2022/12/13 00:58:48;;;;;;;33.95;22.40;;;;;;;0.42;76.08;98538.58;1825970;78;21083;-39
2022/12/13 01:01:17;;;;;;;34.38;22.42;;;;;;;0.46;76.04;98534.73;1825672;78;21529;-39
2022/12/13 01:03:43;;;;;;;33.45;23.32;;;;;;;0.47;76.16;98546.19;1825764;78;20956;-39
2022/12/13 01:06:22;;;;;;;32.10;22.55;;;;;;;0.52;76.23;98535.36;1825769;78;21020;-39
2022/12/13 01:08:49;;;;;;;36.23;23.20;;;;;;;0.54;76.20;98539.82;1825645;78;21056;-39
2022/12/13 01:11:16;;;;;;;32.42;22.00;;;;;;;0.56;76.01;98537.64;1831886;78;21537;-39
2022/12/13 01:13:44;;;;;;;31.48;22.75;;;;;;;0.54;76.04;98544.61;1830521;78;21191;-39
2022/12/13 01:16:11;;;;;;;33.38;22.58;;;;;;;0.52;76.07;98538.03;1822712;78;20940;-39
2022/12/13 01:18:39;;;;;;;37.05;23.75;;;;;;;0.50;76.13;98542.34;1822519;78;21480;-39
2022/12/13 01:21:10;;;;;;;36.17;23.62;;;;;;;0.47;76.30;98534.97;1822712;78;20943;-39
2022/12/13 01:23:37;;;;;;;38.35;23.62;;;;;;;0.46;76.28;98533.94;1823038;78;21003;-39
2022/12/13 01:26:06;;;;;;;36.42;23.20;;;;;;;0.44;76.54;98529.70;1822728;78;21227;-38
2022/12/13 01:28:32;;;;;;;33.08;23.35;;;;;;;0.48;76.58;98528.55;1822992;78;20948;-39
2022/12/13 01:31:03;;;;;;;34.27;22.87;;;;;;;0.58;76.52;98530.12;1822745;78;20980;-39
2022/12/13 01:33:31;;;;;;;31.93;22.37;;;;;;;0.65;76.19;98530.42;1822561;78;21489;-39
2022/12/13 01:36:03;;;;;;;33.65;22.65;;;;;;;0.69;76.08;98534.02;1822687;78;20992;-39
2022/12/13 01:38:30;;;;;;;31.93;22.73;;;;;;;0.66;76.03;98532.78;1823075;78;21707;-39
2022/12/13 01:40:57;;;;;;;34.95;23.77;;;;;;;0.66;76.06;98530.66;1822503;78;20956;-39
2022/12/13 01:43:28;;;;;;;35.23;23.32;;;;;;;0.62;76.06;98525.72;1822618;78;21055;-39
2022/12/13 01:45:56;;;;;;;34.83;23.45;;;;;;;0.62;76.09;98529.17;1819361;78;20993;-39
2022/12/13 01:48:27;;;;;;;32.70;23.32;;;;;;;0.60;76.17;98529.23;1822657;78;21530;-39
2022/12/13 01:50:57;;;;;;;33.70;22.48;;;;;;;0.63;76.22;98530.72;1822595;78;21098;-39
2022/12/13 01:53:26;;;;;;;35.88;23.52;;;;;;;0.64;76.16;98522.96;1822604;78;20905;-39
2022/12/13 01:55:56;;;;;;;35.05;23.07;;;;;;;0.62;76.12;98521.17;1822772;78;21498;-39
2022/12/13 01:58:22;;;;;;;;;;;;;;;0.62;76.15;98525.17;1825614;78;21518;-39
2022/12/13 02:00:49;;;;;;;31.40;21.87;;;;;;;0.67;76.17;98519.69;1822780;78;20130;-39
2022/12/13 02:03:16;;;;;;;37.73;24.15;;;;;;;0.60;76.40;98514.57;1822602;78;23146;-38
2022/12/13 02:05:59;;;;;;;34.35;23.47;;;;;;;0.61;76.56;98508.14;1822781;78;20936;-39
2022/12/13 02:08:25;;;;;;;33.42;23.52;;;;;;;0.62;76.52;98502.50;1822791;78;20932;-39
2022/12/13 02:10:52;;;;;;;34.50;23.83;;;;;;;0.66;76.52;98498.66;1817822;78;20949;-39
2022/12/13 02:13:19;;;;;;;33.45;23.07;;;;;;;0.70;76.33;98501.70;1816587;79;21530;-39
2022/12/13 02:16:01;;;;;;;34.98;23.50;;;;;;;0.74;76.14;98505.85;1816366;79;21220;-39
2022/12/13 02:18:40;;;;;;;35.83;23.67;;;;;;;0.77;76.08;98505.23;1816336;79;21067;-38
2022/12/13 02:21:28;;;;;;;34.00;22.82;;;;;;;0.80;76.01;98522.73;1816357;79;20945;-39
2022/12/13 02:24:38;;;;;;;32.65;22.58;;;;;;;0.82;75.84;98518.42;1816234;79;21390;-39
2022/12/13 05:41:56;;;;;;;24.47;18.73;;;;;;;0.39;80.91;98557.84;1870075;76;22260;-39
2022/12/13 05:44:23;;;;;;;26.52;18.77;;;;;;;0.50;79.72;98558.34;1825999;78;20918;-39
2022/12/13 05:46:50;;;;;;;23.65;17.00;;;;;;;0.48;79.44;98559.22;1826714;78;21463;-39
2022/12/13 05:49:16;;;;;;;25.00;17.10;;;;;;;0.44;78.98;98553.70;1826399;78;21480;-39
2022/12/13 05:51:43;;;;;;;24.60;16.93;;;;;;;0.46;78.62;98556.61;1826654;78;20997;-39
2022/12/13 16:06:20;;;;;;;15.58;11.22;;;;;;;0.18;74.82;98666.16;1785112;80;23161;-38
2022/12/13 16:08:49;;;;;;;;;;;;;;;0.34;73.24;98669.97;1776362;80;21505;-38
2022/12/13 16:11:18;;;;;;;18.02;12.35;;;;;;;0.30;72.87;98670.35;1737803;81;21234;-39
2022/12/13 16:13:45;;;;;;;16.48;11.00;;;;;;;0.17;72.99;98673.92;1736503;81;20996;-38
2022/12/13 16:16:29;;;;;;;16.20;10.63;;;;;;;0.19;72.83;98675.73;1765789;81;21012;-38
2022/12/13 16:19:00;;;;;;;14.78;10.48;;;;;;;0.22;72.20;98679.11;1765952;81;20979;-38
2022/12/13 16:21:28;;;;;;;12.23;8.75;;;;;;;0.19;72.29;98673.08;1766027;81;21516;-38
2022/12/13 16:23:55;;;;;;;13.05;9.48;;;;;;;0.20;71.30;98675.95;1765971;81;21130;-38
2022/12/13 16:26:25;;;;;;;14.40;9.13;;;;;;;0.17;70.88;98676.58;1766069;81;21628;-38
2022/12/13 16:28:58;;;;;;;12.33;7.95;;;;;;;0.19;70.96;98683.73;1766136;81;21816;-38
2022/12/13 16:31:27;;;;;;;12.23;8.18;;;;;;;0.24;70.36;98679.58;1766071;81;21020;-38
2022/12/13 16:33:53;;;;;;;10.85;7.45;;;;;;;0.24;69.93;98680.91;1766174;81;21087;-38
2022/12/13 16:36:20;;;;;;;11.38;8.20;;;;;;;0.26;70.03;98689.39;1766065;81;21194;-38
2022/12/13 16:38:47;;;;;;;12.05;8.48;;;;;;;0.24;69.92;98687.57;1766306;81;20999;-39
2022/12/13 16:41:14;;;;;;;12.55;8.13;;;;;;;0.24;69.96;98684.91;1766163;81;21051;-38
2022/12/13 16:43:55;;;;;;;12.15;7.83;;;;;;;0.26;69.94;98688.06;1766127;81;20998;-38
2022/12/13 16:46:23;;;;;;;10.63;7.72;;;;;;;0.29;70.23;98691.43;1766106;81;21031;-38
2022/12/13 16:48:51;;;;;;;10.88;7.75;;;;;;;0.33;69.54;98688.96;1765895;81;22026;-38
2022/12/13 16:51:18;;;;;;;10.60;7.87;;;;;;;0.32;69.02;98687.38;1766078;81;21015;-39
2022/12/13 16:53:45;;;;;;;12.05;7.42;;;;;;;0.30;69.17;98689.02;1766005;81;21074;-38
2022/12/13 16:56:15;;;;;;;9.93;7.70;;;;;;;0.31;69.25;98687.92;1765834;81;21115;-39
2022/12/13 16:58:40;;;;;;;11.12;7.47;;;;;;;0.28;69.21;98685.09;1765863;81;21047;-38
2022/12/13 17:01:09;;;;;;;12.50;7.58;;;;;;;0.27;69.25;98685.64;1766142;81;21531;-38
2022/12/13 17:03:38;;;;;;;9.98;7.45;;;;;;;0.22;69.41;98685.77;1765966;81;21014;-38
2022/12/13 17:06:06;;;;;;;8.88;6.85;;;;;;;0.21;69.55;98685.53;1765860;80;21039;-39
2022/12/13 17:08:33;;;;;;;10.10;7.60;;;;;;;0.25;69.94;98689.69;1765653;81;21552;-38
2022/12/13 17:11:00;;;;;;;11.60;7.85;;;;;;;0.31;70.09;98687.92;1765378;81;20972;-38
2022/12/13 17:13:27;;;;;;;11.10;7.83;;;;;;;0.40;69.65;98689.28;1765361;81;21242;-38
2022/12/13 17:15:54;;;;;;;12.35;8.30;;;;;;;0.43;69.58;98689.47;1765297;81;21035;-38
2022/12/13 17:18:21;;;;;;;9.53;7.30;;;;;;;0.53;69.44;98688.95;1765349;81;21003;-38
2022/12/13 17:20:49;;;;;;;10.30;8.03;;;;;;;0.53;68.68;98692.41;1765492;81;20983;-39
2022/12/13 17:23:17;;;;;;;11.20;7.85;;;;;;;0.52;68.94;98690.03;1765416;81;20960;-38
2022/12/13 17:25:44;;;;;;;11.65;8.63;;;;;;;0.52;68.73;98694.83;1765330;81;21210;-38
2022/12/13 17:28:12;;;;;;;15.45;9.48;;;;;;;0.46;68.70;98701.39;1765302;81;20986;-38
2022/12/13 17:30:40;;;;;;;18.85;12.45;;;;;;;0.44;68.56;98704.35;1765712;81;20904;-38
2022/12/13 17:33:08;;;;;;;14.47;8.75;;;;;;;0.41;68.66;98703.65;1765564;81;20908;-38
2022/12/13 17:35:39;;;;;;;11.10;7.20;;;;;;;0.38;68.21;98706.94;1765616;81;21047;-38
2022/12/13 17:38:05;;;;;;;9.95;6.62;;;;;;;0.34;67.53;98710.50;1765563;81;21206;-39
2022/12/13 17:40:34;;;;;;;10.70;6.65;;;;;;;0.31;67.17;98707.92;1765523;81;21473;-38
2022/12/13 17:43:01;;;;;;;9.33;6.62;;;;;;;0.32;67.10;98710.83;1765387;81;20952;-38
2022/12/13 17:45:28;;;;;;;10.38;6.70;;;;;;;0.27;65.96;98713.63;1765298;81;21091;-38
2022/12/13 17:47:54;;;;;;;10.82;6.10;;;;;;;0.22;65.54;98707.64;1765282;81;21583;-38
2022/12/13 17:50:21;;;;;;;7.37;5.40;;;;;;;0.14;65.76;98701.20;1765276;81;21242;-38
2022/12/13 17:52:48;;;;;;;7.70;5.03;;;;;;;0.11;65.39;98699.13;1765462;81;20955;-38
2022/12/13 17:55:15;;;;;;;6.10;4.67;;;;;;;0.05;65.28;98712.91;1765247;81;20999;-38
2022/12/13 17:57:42;;;;;;;6.70;4.80;;;;;;;-0.03;64.54;98709.09;1765277;81;21015;-38
2022/12/13 18:00:12;;;;;;;6.92;4.30;;;;;;;-0.13;64.40;98705.34;1765393;81;20952;-38
2022/12/13 18:02:39;;;;;;;7.62;4.75;;;;;;;-0.16;64.60;98717.95;1765493;81;21107;-38
2022/12/13 18:05:07;;;;;;;5.33;4.10;;;;;;;-0.18;64.35;98710.80;1762735;80;21095;-38
2022/12/13 18:07:34;;;;;;;7.03;4.72;;;;;;;-0.23;64.27;98721.03;1747378;80;21616;-38
2022/12/13 18:10:00;;;;;;;6.33;4.08;;;;;;;-0.29;64.15;98723.57;1747412;82;20976;-38
2022/12/13 18:12:27;;;;;;;7.22;4.33;;;;;;;-0.40;63.95;98724.14;1747531;82;21056;-38
